createdAt,value
2023-01-09T00:00:52.987Z,9.70
2023-01-09T00:03:23.174Z,9.50
2023-01-09T00:05:53.281Z,9.60
2023-01-09T00:08:25.964Z,9.70
2023-01-09T00:10:56.008Z,9.50
2023-01-09T00:13:26.182Z,9.20
2023-01-09T00:15:56.241Z,9.40
2023-01-09T00:18:26.293Z,9.30
2023-01-09T00:20:56.318Z,9.50
2023-01-09T00:23:29.144Z,8.70
2023-01-09T00:26:06.903Z,8.60
2023-01-09T00:28:37.346Z,10.10
2023-01-09T00:31:09.161Z,9.60
2023-01-09T00:33:42.346Z,8.50
2023-01-09T00:36:12.977Z,8.90
2023-01-09T00:38:45.615Z,9.20
2023-01-09T00:41:20.838Z,8.80
2023-01-09T00:43:54.590Z,9.60
2023-01-09T00:46:28.593Z,9.50
2023-01-09T00:48:58.847Z,8.50
2023-01-09T00:51:29.121Z,8.50
2023-01-09T00:54:01.937Z,8.60
2023-01-09T00:56:32.050Z,8.90
2023-01-09T00:59:02.159Z,8.20
2023-01-09T01:01:32.557Z,8.60
2023-01-09T01:04:22.663Z,8.70
2023-01-09T01:07:05.167Z,9.00
2023-01-09T01:09:37.977Z,8.60
2023-01-09T01:12:08.877Z,9.00
2023-01-09T01:14:39.677Z,8.40
2023-01-09T01:17:10.882Z,9.00
2023-01-09T01:19:40.947Z,9.00
2023-01-09T01:22:11.044Z,9.10
2023-01-09T01:24:43.701Z,8.60
2023-01-09T01:27:13.740Z,8.70
2023-01-09T01:29:43.814Z,9.00
2023-01-09T01:34:46.890Z,7.30
2023-01-09T01:39:50.463Z,8.70
2023-01-09T01:45:07.015Z,8.50
2023-01-09T01:47:52.035Z,8.40
2023-01-09T01:50:28.982Z,8.30
2023-01-09T01:53:04.084Z,8.20
2023-01-09T01:55:38.051Z,8.10
2023-01-09T01:58:10.717Z,8.40
2023-01-09T02:00:43.374Z,8.40
2023-01-09T02:03:15.165Z,8.70
2023-01-09T02:08:15.934Z,8.60
2023-01-09T02:10:49.245Z,9.00
2023-01-09T02:13:19.556Z,8.60
2023-01-09T02:16:08.803Z,8.60
2023-01-09T02:18:48.229Z,8.30
2023-01-09T02:21:30.798Z,8.50
2023-01-09T02:24:30.573Z,8.70
2023-01-09T02:27:29.333Z,8.50
2023-01-09T02:30:33.307Z,9.20
2023-01-09T02:33:19.845Z,7.80
2023-01-09T02:36:02.126Z,8.60
2023-01-09T02:38:38.788Z,8.50
2023-01-09T02:41:15.932Z,8.90
2023-01-09T02:46:25.073Z,8.90
2023-01-09T02:48:56.817Z,8.60
2023-01-09T02:51:35.956Z,8.50
2023-01-09T02:54:19.632Z,8.20
2023-01-09T02:57:24.992Z,9.40
2023-01-09T03:00:06.913Z,8.00
2023-01-09T03:02:52.718Z,9.00
2023-01-09T03:05:28.814Z,8.10
2023-01-09T03:08:04.415Z,8.60
2023-01-09T03:10:41.591Z,8.50
2023-01-09T03:13:14.731Z,8.50
2023-01-09T03:15:49.787Z,8.60
2023-01-09T03:18:26.336Z,8.90
2023-01-09T03:20:58.127Z,8.50
2023-01-09T03:23:28.190Z,8.70
2023-01-09T03:25:58.217Z,7.80
2023-01-09T03:28:32.004Z,9.10
2023-01-09T03:31:02.049Z,8.50
2023-01-09T03:33:34.675Z,8.40
2023-01-09T03:36:04.705Z,8.70
2023-01-09T03:38:34.776Z,8.70
2023-01-09T03:41:05.378Z,8.70
2023-01-09T03:43:35.670Z,8.70
2023-01-09T03:46:06.599Z,8.90
2023-01-09T03:48:39.341Z,7.80
2023-01-09T03:51:09.843Z,8.90
2023-01-09T03:53:39.968Z,9.10
2023-01-09T03:56:10.665Z,8.40
2023-01-09T03:58:40.689Z,8.90
2023-01-09T04:01:13.018Z,9.00
2023-01-09T04:03:45.833Z,8.70
2023-01-09T04:08:46.786Z,9.40
2023-01-09T04:11:18.160Z,9.00
2023-01-09T04:13:48.200Z,8.80
2023-01-09T04:16:18.413Z,9.40
2023-01-09T04:18:51.057Z,8.70
2023-01-09T04:21:21.138Z,8.20
2023-01-09T04:26:21.498Z,9.10
2023-01-09T04:33:54.824Z,9.30
2023-01-09T04:36:24.891Z,8.40
2023-01-09T04:38:54.975Z,8.60
2023-01-09T04:41:37.405Z,8.90
2023-01-09T04:44:07.703Z,8.00
2023-01-09T04:46:37.879Z,9.40
2023-01-09T04:49:10.526Z,9.70
2023-01-09T04:51:40.609Z,8.70
2023-01-09T04:54:10.642Z,8.40
2023-01-09T04:56:41.507Z,8.80
2023-01-09T04:59:11.944Z,8.80
2023-01-09T05:04:15.142Z,9.60
2023-01-09T05:11:45.679Z,9.00
2023-01-09T05:16:46.052Z,9.40
2023-01-09T05:19:18.715Z,8.60
2023-01-09T05:21:49.016Z,7.80
2023-01-09T05:24:19.039Z,8.90
2023-01-09T05:26:49.085Z,8.20
2023-01-09T05:29:19.084Z,9.50
2023-01-09T05:31:49.328Z,9.40
2023-01-09T05:34:22.911Z,9.20
2023-01-09T05:36:52.981Z,9.60
2023-01-09T05:39:23.188Z,9.70
2023-01-09T05:41:53.232Z,9.00
2023-01-09T05:44:23.243Z,8.50
2023-01-09T05:46:53.202Z,9.20
2023-01-09T05:49:25.814Z,8.30
2023-01-09T05:54:26.231Z,9.40
2023-01-09T05:56:56.222Z,9.30
2023-01-09T05:59:26.215Z,9.20
2023-01-09T06:01:57.007Z,9.20
2023-01-09T06:04:30.628Z,9.10
2023-01-09T06:07:00.818Z,9.10
2023-01-09T06:09:31.647Z,9.10
2023-01-09T06:17:02.277Z,8.60
2023-01-09T06:19:34.954Z,8.70
2023-01-09T06:22:05.004Z,8.50
2023-01-09T06:27:06.744Z,8.90
2023-01-09T06:29:36.543Z,8.70
2023-01-09T06:32:06.754Z,8.70
2023-01-09T06:34:39.465Z,9.30
2023-01-09T06:37:09.593Z,8.40
2023-01-09T06:39:40.056Z,9.30
2023-01-09T06:44:40.493Z,9.30
2023-01-09T06:47:10.681Z,8.00
2023-01-09T06:49:43.626Z,8.90
2023-01-09T06:52:13.902Z,9.10
2023-01-09T06:54:44.768Z,8.90
2023-01-09T06:57:16.309Z,9.70
2023-01-09T06:59:46.357Z,9.90
2023-01-09T07:02:21.799Z,9.00
2023-01-09T07:04:54.510Z,9.50
2023-01-09T07:07:24.517Z,9.40
2023-01-09T07:09:54.826Z,8.80
2023-01-09T07:12:24.864Z,9.40
2023-01-09T07:17:27.704Z,8.50
2023-01-09T07:20:00.422Z,9.40
2023-01-09T07:22:30.658Z,8.80
2023-01-09T07:25:00.738Z,8.70
2023-01-09T07:27:30.811Z,9.50
2023-01-09T07:30:00.891Z,8.80
2023-01-09T07:32:30.999Z,9.30
2023-01-09T07:35:03.740Z,9.10
2023-01-09T07:37:34.346Z,9.10
2023-01-09T07:40:05.133Z,9.50
2023-01-09T07:42:35.198Z,7.90
2023-01-09T07:45:05.277Z,7.80
2023-01-09T07:47:35.343Z,8.80
2023-01-09T07:50:08.856Z,9.30
2023-01-09T07:52:38.872Z,8.70
2023-01-09T07:55:10.501Z,9.00
2023-01-09T07:57:40.590Z,9.40
2023-01-09T08:00:14.361Z,8.90
2023-01-09T08:02:44.438Z,9.10
2023-01-09T08:05:17.188Z,9.00
2023-01-09T08:07:47.277Z,9.30
2023-01-09T08:12:50.592Z,9.30
2023-01-09T08:15:20.993Z,9.20
2023-01-09T08:17:50.973Z,9.10
2023-01-09T08:20:24.087Z,9.50
2023-01-09T08:22:54.493Z,8.90
2023-01-09T08:25:24.618Z,9.30
2023-01-09T08:27:54.656Z,9.10
2023-01-09T08:30:24.942Z,9.50
2023-01-09T08:32:56.196Z,9.10
2023-01-09T08:35:28.854Z,9.00
2023-01-09T08:37:58.846Z,9.10
2023-01-09T08:40:28.978Z,9.20
2023-01-09T08:43:11.474Z,8.90
2023-01-09T08:45:53.878Z,8.70
2023-01-09T08:48:24.016Z,9.40
2023-01-09T08:50:56.988Z,10.10
2023-01-09T08:55:57.498Z,9.50
2023-01-09T08:58:27.591Z,9.20
2023-01-09T09:00:59.308Z,9.40
2023-01-09T09:03:29.308Z,9.80
2023-01-09T09:06:02.280Z,9.50
2023-01-09T09:08:32.917Z,9.60
2023-01-09T09:11:03.220Z,9.40
2023-01-09T09:13:33.249Z,10.40
2023-01-09T09:16:03.402Z,9.50
2023-01-09T09:18:33.389Z,10.20
2023-01-09T09:21:06.146Z,9.50
2023-01-09T09:23:36.220Z,9.50
2023-01-09T09:26:06.274Z,9.50
2023-01-09T09:28:36.360Z,8.20
2023-01-09T09:31:08.879Z,9.30
2023-01-09T09:33:38.928Z,9.30
2023-01-09T09:36:11.940Z,9.50
2023-01-09T09:38:42.020Z,9.20
2023-01-09T09:41:47.813Z,9.30
2023-01-09T09:44:53.445Z,8.30
2023-01-09T09:47:38.362Z,9.60
2023-01-09T09:50:22.888Z,9.30
2023-01-09T09:52:58.520Z,9.40
2023-01-09T09:55:34.127Z,10.30
2023-01-09T09:58:10.255Z,9.20
2023-01-09T10:00:40.290Z,10.50
2023-01-09T10:03:18.361Z,9.50
2023-01-09T10:05:54.442Z,9.40
2023-01-09T10:08:37.705Z,9.40
2023-01-09T10:11:12.595Z,9.60
2023-01-09T10:16:38.915Z,9.50
2023-01-09T10:19:19.647Z,9.70
2023-01-09T10:22:03.499Z,10.00
2023-01-09T10:24:51.653Z,8.90
2023-01-09T10:27:34.782Z,9.90
2023-01-09T10:30:24.351Z,10.00
2023-01-09T10:33:09.613Z,9.90
2023-01-09T10:36:07.404Z,10.10
2023-01-09T10:38:40.828Z,10.60
2023-01-09T10:41:17.656Z,10.20
2023-01-09T10:43:52.400Z,10.80
2023-01-09T10:46:26.887Z,10.30
2023-01-09T10:49:02.599Z,10.40
2023-01-09T10:51:39.869Z,9.90
2023-01-09T10:54:18.599Z,10.10
2023-01-09T10:56:57.772Z,10.50
2023-01-09T10:59:30.340Z,10.70
2023-01-09T11:02:00.594Z,10.60
2023-01-09T11:04:34.179Z,9.60
2023-01-09T11:07:08.860Z,10.60
2023-01-09T11:09:59.858Z,10.50
2023-01-09T11:12:34.359Z,10.50
2023-01-09T11:15:30.172Z,10.50
2023-01-09T11:18:24.624Z,10.10
2023-01-09T11:20:55.298Z,10.50
2023-01-09T11:23:32.490Z,10.50
2023-01-09T11:26:04.841Z,10.50
2023-01-09T11:28:37.553Z,10.70
2023-01-09T11:31:07.814Z,10.90
2023-01-09T11:33:43.922Z,11.00
2023-01-09T11:36:19.255Z,10.80
2023-01-09T11:38:52.915Z,10.80
2023-01-09T11:41:25.797Z,10.60
2023-01-09T11:44:00.849Z,10.60
2023-01-09T11:46:37.572Z,10.80
2023-01-09T11:49:22.829Z,10.80
2023-01-09T11:52:16.551Z,10.70
2023-01-09T11:57:20.421Z,10.70
2023-01-09T11:59:55.584Z,10.60
2023-01-09T12:03:00.526Z,10.50
2023-01-09T12:05:38.047Z,10.50
2023-01-09T12:08:22.098Z,11.20
2023-01-09T12:11:11.815Z,10.90
2023-01-09T12:14:05.193Z,11.20
2023-01-09T12:16:46.290Z,10.60
2023-01-09T12:19:45.934Z,11.20
2023-01-09T12:22:25.951Z,11.30
2023-01-09T12:25:23.730Z,11.20
2023-01-09T12:28:15.434Z,11.00
2023-01-09T12:30:58.590Z,10.70
2023-01-09T12:33:43.169Z,10.50
2023-01-09T12:36:22.802Z,10.80
2023-01-09T12:38:58.145Z,10.10
2023-01-09T12:41:45.589Z,10.40
2023-01-09T12:44:36.002Z,10.00
2023-01-09T12:47:25.278Z,10.50
2023-01-09T12:50:08.714Z,10.90
2023-01-09T12:52:42.288Z,10.40
2023-01-09T12:55:20.944Z,11.10
2023-01-09T12:57:53.795Z,11.40
2023-01-09T13:00:27.628Z,11.00
2023-01-09T13:03:11.962Z,11.20
2023-01-09T13:05:50.160Z,11.30
2023-01-09T13:08:26.395Z,10.90
2023-01-09T13:11:08.545Z,10.90
2023-01-09T13:13:50.012Z,10.80
2023-01-09T13:16:23.952Z,10.80
2023-01-09T13:18:58.975Z,10.80
2023-01-09T13:21:32.211Z,11.20
2023-01-09T13:24:09.179Z,11.00
2023-01-09T13:26:44.560Z,11.00
2023-01-09T13:29:20.270Z,10.90
2023-01-09T13:32:19.912Z,10.90
2023-01-09T13:34:53.834Z,11.00
2023-01-09T13:37:30.809Z,10.90
2023-01-09T13:40:02.615Z,10.10
2023-01-09T13:45:23.956Z,10.50
2023-01-09T13:48:37.390Z,10.60
2023-01-09T13:51:37.393Z,10.70
2023-01-09T13:54:12.114Z,10.40
2023-01-09T13:57:11.734Z,10.50
2023-01-09T13:59:41.952Z,10.70
2023-01-09T14:02:50.046Z,11.00
2023-01-09T14:05:55.211Z,11.10
2023-01-09T14:08:26.959Z,11.40
2023-01-09T14:11:02.146Z,11.60
2023-01-09T14:13:36.137Z,11.80
2023-01-09T14:16:10.083Z,11.80
2023-01-09T14:18:43.461Z,11.80
2023-01-09T14:21:15.048Z,11.70
2023-01-09T14:23:57.295Z,11.30
2023-01-09T14:26:47.209Z,11.50
2023-01-09T14:29:43.599Z,11.40
2023-01-09T14:32:45.090Z,11.40
2023-01-09T14:35:40.557Z,11.40
2023-01-09T14:38:29.434Z,11.30
2023-01-09T14:41:03.601Z,11.30
2023-01-09T14:43:57.279Z,11.20
2023-01-09T14:46:28.493Z,11.40
2023-01-09T14:49:06.749Z,11.30
2023-01-09T14:51:41.752Z,11.30
2023-01-09T14:54:26.056Z,11.00
2023-01-09T14:56:56.156Z,11.20
2023-01-09T14:59:28.889Z,11.00
2023-01-09T15:02:01.437Z,11.00
2023-01-09T15:04:35.211Z,11.10
2023-01-09T15:07:06.399Z,11.10
2023-01-09T15:09:42.188Z,11.30
2023-01-09T15:12:17.796Z,11.20
2023-01-09T15:14:54.549Z,11.50
2023-01-09T15:17:28.230Z,10.80
2023-01-09T15:19:59.307Z,10.40
2023-01-09T15:22:32.779Z,10.70
2023-01-09T15:25:19.325Z,11.50
2023-01-09T15:27:51.651Z,10.80
2023-01-09T15:30:29.612Z,10.80
2023-01-09T15:33:00.304Z,11.10
2023-01-09T15:35:31.436Z,11.10
2023-01-09T15:38:01.891Z,11.10
2023-01-09T15:40:40.876Z,11.20
2023-01-09T15:43:15.073Z,11.00
2023-01-09T15:45:49.045Z,10.70
2023-01-09T15:48:25.623Z,10.30
2023-01-09T15:51:00.260Z,10.80
2023-01-09T15:53:31.216Z,10.80
2023-01-09T15:56:19.718Z,10.90
2023-01-09T15:58:51.180Z,10.80
2023-01-09T16:01:32.632Z,10.90
2023-01-09T16:04:08.886Z,10.80
2023-01-09T16:06:45.321Z,10.60
2023-01-09T16:09:21.798Z,10.70
2023-01-09T16:11:54.065Z,10.50
2023-01-09T16:14:27.637Z,10.50
2023-01-09T16:17:03.557Z,10.50
2023-01-09T16:19:35.970Z,10.60
2023-01-09T16:22:07.102Z,10.70
2023-01-09T16:24:43.796Z,10.90
2023-01-09T16:27:30.229Z,10.90
2023-01-09T16:30:01.392Z,10.60
2023-01-09T16:32:36.739Z,10.00
2023-01-09T16:35:09.351Z,10.40
2023-01-09T16:37:39.530Z,10.60
2023-01-09T16:40:29.965Z,10.60
2023-01-09T16:43:01.815Z,10.70
2023-01-09T16:45:34.746Z,10.70
2023-01-09T16:48:16.656Z,10.60
2023-01-09T16:50:47.247Z,10.70
2023-01-09T16:53:22.844Z,10.60
2023-01-09T16:55:53.743Z,10.70
2023-01-09T16:58:28.281Z,10.60
2023-01-09T17:00:58.520Z,10.50
2023-01-09T17:03:31.261Z,10.50
2023-01-09T17:06:03.538Z,10.90
2023-01-09T17:08:36.192Z,10.70
2023-01-09T17:11:06.796Z,11.20
2023-01-09T17:13:36.961Z,10.90
2023-01-09T17:16:08.441Z,10.60
2023-01-09T17:18:41.645Z,10.40
2023-01-09T17:21:18.487Z,10.50
2023-01-09T17:24:08.846Z,10.60
2023-01-09T17:26:52.448Z,9.60
2023-01-09T17:29:22.679Z,10.60
2023-01-09T17:31:52.845Z,10.50
2023-01-09T17:34:25.641Z,10.50
2023-01-09T17:36:55.858Z,10.50
2023-01-09T17:39:26.269Z,10.60
2023-01-09T17:41:57.754Z,10.60
2023-01-09T17:44:27.913Z,10.60
2023-01-09T17:46:58.919Z,10.60
2023-01-09T17:49:31.748Z,10.50
2023-01-09T17:52:01.843Z,10.50
2023-01-09T17:54:32.052Z,10.50
2023-01-09T17:57:03.407Z,10.60
2023-01-09T17:59:33.579Z,10.60
2023-01-09T18:02:03.837Z,9.00
2023-01-09T18:04:39.299Z,10.40
2023-01-09T18:07:09.479Z,10.80
2023-01-09T18:09:39.982Z,10.80
2023-01-09T18:12:10.381Z,10.80
2023-01-09T18:14:41.563Z,10.90
2023-01-09T18:17:15.734Z,10.90
2023-01-09T18:19:50.283Z,11.00
2023-01-09T18:22:20.393Z,11.10
2023-01-09T18:24:50.557Z,10.50
2023-01-09T18:27:20.689Z,10.60
2023-01-09T18:29:50.988Z,10.50
2023-01-09T18:32:21.006Z,10.60
2023-01-09T18:34:53.625Z,10.40
2023-01-09T18:37:23.725Z,10.60
2023-01-09T18:39:53.807Z,10.50
2023-01-09T18:42:23.915Z,10.50
2023-01-09T18:44:54.025Z,10.40
2023-01-09T18:47:24.181Z,10.20
2023-01-09T18:49:56.909Z,10.30
2023-01-09T18:52:26.987Z,10.30
2023-01-09T18:54:57.091Z,10.40
2023-01-09T18:57:27.221Z,10.60
2023-01-09T18:59:57.426Z,10.50
2023-01-09T19:02:28.776Z,10.50
2023-01-09T19:05:01.593Z,10.00
2023-01-09T19:07:31.763Z,10.30
2023-01-09T19:10:01.929Z,10.50
2023-01-09T19:12:32.010Z,10.70
2023-01-09T19:15:02.085Z,10.70
2023-01-09T19:17:33.422Z,10.70
2023-01-09T19:20:05.860Z,10.70
2023-01-09T19:22:36.620Z,10.70
2023-01-09T19:27:37.188Z,10.50
2023-01-09T19:30:09.784Z,10.50
2023-01-09T19:32:40.227Z,10.50
2023-01-09T19:35:13.172Z,10.50
2023-01-09T19:37:43.290Z,10.60
2023-01-09T19:40:14.657Z,10.50
2023-01-09T19:42:44.762Z,10.50
2023-01-09T19:45:15.116Z,10.50
2023-01-09T19:47:45.527Z,9.10
2023-01-09T19:50:19.523Z,10.40
2023-01-09T19:52:51.051Z,10.70
2023-01-09T19:55:21.232Z,11.00
2023-01-09T19:57:51.301Z,10.70
2023-01-09T20:00:21.802Z,10.60
2023-01-09T20:02:52.713Z,10.70
2023-01-09T20:05:25.492Z,10.30
2023-01-09T20:07:57.691Z,10.60
2023-01-09T20:10:27.850Z,10.50
2023-01-09T20:12:57.917Z,10.20
2023-01-09T20:15:28.057Z,10.20
2023-01-09T20:17:58.141Z,10.40
2023-01-09T20:20:30.932Z,10.40
2023-01-09T20:23:01.040Z,10.40
2023-01-09T20:25:31.541Z,10.60
2023-01-09T20:28:01.789Z,10.70
2023-01-09T20:30:32.014Z,10.70
2023-01-09T20:33:02.191Z,10.80
2023-01-09T20:35:35.066Z,10.80
2023-01-09T20:38:05.208Z,10.80
2023-01-09T20:40:37.489Z,10.80
2023-01-09T20:43:08.727Z,10.80
2023-01-09T20:45:38.600Z,10.70
2023-01-09T20:48:09.335Z,10.60
2023-01-09T20:50:42.198Z,10.50
2023-01-09T20:53:12.599Z,10.50
2023-01-09T20:55:42.858Z,10.50
2023-01-09T20:58:13.132Z,10.40
2023-01-09T21:00:43.323Z,10.40
2023-01-09T21:03:15.558Z,10.50
2023-01-09T21:05:48.617Z,10.50
2023-01-09T21:08:18.692Z,10.40
2023-01-09T21:10:48.849Z,10.30
2023-01-09T21:13:19.024Z,10.40
2023-01-09T21:15:49.368Z,10.50
2023-01-09T21:18:19.538Z,10.50
2023-01-09T21:20:52.391Z,10.60
2023-01-09T21:23:23.248Z,10.60
2023-01-09T21:25:53.566Z,10.50
2023-01-09T21:28:24.725Z,10.40
2023-01-09T21:30:55.001Z,10.40
2023-01-09T21:33:25.263Z,10.40
2023-01-09T21:35:59.880Z,10.40
2023-01-09T21:38:30.166Z,10.40
2023-01-09T21:41:20.397Z,10.50
2023-01-09T21:44:02.808Z,10.50
2023-01-09T21:46:45.298Z,10.40
2023-01-09T21:49:15.471Z,10.30
2023-01-09T21:51:48.449Z,10.30
2023-01-09T21:54:18.572Z,10.20
2023-01-09T21:56:49.051Z,10.10
2023-01-09T21:59:19.650Z,10.20
2023-01-09T22:01:51.577Z,10.20
2023-01-09T22:04:26.213Z,10.20
2023-01-09T22:06:59.146Z,10.40
2023-01-09T22:09:29.392Z,10.30
2023-01-09T22:11:59.783Z,10.20
2023-01-09T22:14:29.901Z,10.20
2023-01-09T22:17:00.054Z,10.20
2023-01-09T22:19:30.194Z,10.00
2023-01-09T22:22:03.892Z,10.10
2023-01-09T22:24:33.947Z,10.20
2023-01-09T22:27:04.162Z,10.30
2023-01-09T22:29:34.287Z,10.30
2023-01-09T22:32:04.812Z,10.20
2023-01-09T22:34:34.919Z,10.30
2023-01-09T22:37:07.951Z,10.10
2023-01-09T22:39:38.037Z,10.10
2023-01-09T22:42:08.510Z,10.00
2023-01-09T22:44:38.556Z,9.90
2023-01-09T22:47:08.703Z,10.00
2023-01-09T22:49:52.391Z,10.00
2023-01-09T22:52:26.117Z,9.90
2023-01-09T22:54:56.206Z,9.60
2023-01-09T22:57:26.442Z,9.70
2023-01-09T22:59:56.694Z,9.70
2023-01-09T23:02:26.911Z,9.80
2023-01-09T23:04:58.449Z,9.60
2023-01-09T23:07:31.407Z,9.80
2023-01-09T23:10:02.210Z,9.40
2023-01-09T23:12:32.260Z,9.40
2023-01-09T23:15:02.336Z,9.40
2023-01-09T23:17:32.540Z,9.50
2023-01-09T23:20:02.593Z,9.60
2023-01-09T23:22:35.243Z,9.80
2023-01-09T23:25:05.346Z,9.30
2023-01-09T23:27:35.551Z,9.70
2023-01-09T23:30:05.635Z,9.30
2023-01-09T23:32:35.692Z,9.50
2023-01-09T23:35:05.854Z,10.30
2023-01-09T23:37:38.508Z,9.10
2023-01-09T23:40:09.684Z,9.20
2023-01-09T23:42:52.145Z,8.90
2023-01-09T23:45:23.019Z,9.00
2023-01-09T23:50:23.519Z,9.10
2023-01-09T23:52:56.173Z,9.10
2023-01-09T23:55:26.227Z,8.90
2023-01-09T23:57:57.358Z,7.60
